createdAt,value
2017-12-08T00:00:13.270Z,73189.10
2017-12-08T00:02:13.311Z,73172.76
2017-12-08T00:03:13.326Z,73161.96
2017-12-08T00:04:13.352Z,73135.94
2017-12-08T00:06:13.392Z,73166.86
2017-12-08T00:07:13.479Z,73137.48
2017-12-08T00:09:13.461Z,73131.55
2017-12-08T00:10:13.460Z,73146.58
2017-12-08T00:11:25.101Z,73144.09
2017-12-08T00:12:13.624Z,73113.52
2017-12-08T00:13:13.555Z,73110.10
2017-12-08T00:14:13.585Z,73163.77
2017-12-08T00:15:13.605Z,73146.18
2017-12-08T00:16:13.714Z,73130.23
2017-12-08T00:17:13.610Z,73114.81
2017-12-08T00:19:13.660Z,73107.05
2017-12-08T00:20:13.666Z,73171.80
2017-12-08T00:21:13.702Z,73131.05
2017-12-08T00:22:13.721Z,73116.89
2017-12-08T00:23:13.743Z,73092.21
2017-12-08T00:24:13.766Z,73075.77
2017-12-08T00:25:13.783Z,73127.98
2017-12-08T00:26:13.801Z,73128.57
2017-12-08T00:27:13.849Z,73118.61
2017-12-08T00:28:13.951Z,73136.27
2017-12-08T00:29:25.183Z,73102.16
2017-12-08T00:33:13.947Z,73082.95
2017-12-08T00:34:13.954Z,73122.80
2017-12-08T00:35:14.019Z,73124.63
2017-12-08T00:36:14.118Z,73126.98
2017-12-08T00:38:14.049Z,73111.67
2017-12-08T00:39:14.071Z,73089.63
2017-12-08T00:40:26.159Z,73059.26
2017-12-08T00:41:14.097Z,73099.82
2017-12-08T00:42:14.180Z,73106.84
2017-12-08T00:43:14.153Z,73098.11
2017-12-08T00:44:14.176Z,73081.98
2017-12-08T00:45:14.194Z,73074.91
2017-12-08T00:46:26.171Z,73054.79
2017-12-08T00:47:14.340Z,73092.66
2017-12-08T00:48:14.240Z,73086.80
2017-12-08T00:49:14.278Z,73040.61
2017-12-08T00:50:14.324Z,73033.11
2017-12-08T00:52:14.339Z,73073.27
2017-12-08T00:53:14.359Z,73010.30
2017-12-08T00:54:14.381Z,73093.20
2017-12-08T00:55:14.385Z,73074.59
2017-12-08T00:56:14.421Z,73104.45
2017-12-08T00:57:14.443Z,73061.60
2017-12-08T00:58:14.465Z,73053.15
2017-12-08T00:59:14.484Z,73086.99
2017-12-08T01:00:14.505Z,73044.14
2017-12-08T01:03:14.567Z,73074.78
2017-12-08T01:04:26.208Z,73092.63
2017-12-08T01:05:14.610Z,73077.53
2017-12-08T01:07:14.635Z,73054.59
2017-12-08T01:08:14.668Z,73112.13
2017-12-08T01:10:14.708Z,73036.91
2017-12-08T01:11:14.729Z,73091.98
2017-12-08T01:13:14.771Z,73063.92
2017-12-08T01:14:14.795Z,73064.51
2017-12-08T01:15:14.812Z,73066.00
2017-12-08T01:16:14.936Z,73075.37
2017-12-08T01:17:14.839Z,73065.30
2017-12-08T01:18:14.915Z,73085.62
2017-12-08T01:19:14.893Z,73070.94
2017-12-08T01:21:14.938Z,73064.41
2017-12-08T01:22:14.943Z,73090.52
2017-12-08T01:24:14.999Z,73063.45
2017-12-08T01:28:15.102Z,73057.55
2017-12-08T01:31:15.129Z,73067.84
2017-12-08T01:32:15.161Z,73087.55
2017-12-08T01:33:15.211Z,73064.63
2017-12-08T01:34:15.231Z,73021.13
2017-12-08T01:35:15.223Z,73014.46
2017-12-08T01:36:15.270Z,73050.79
2017-12-08T01:37:15.265Z,73045.29
2017-12-08T01:38:15.305Z,73069.59
2017-12-08T01:41:15.349Z,73076.86
2017-12-08T01:42:15.398Z,73037.24
2017-12-08T01:43:15.419Z,73057.66
2017-12-08T01:44:15.407Z,73056.98
2017-12-08T01:45:15.413Z,73049.30
2017-12-08T01:46:15.451Z,73038.84
2017-12-08T01:48:15.477Z,73060.95
2017-12-08T01:49:15.515Z,73039.88
2017-12-08T01:50:15.532Z,73026.03
2017-12-08T01:51:15.538Z,73050.95
2017-12-08T01:52:15.675Z,73083.66
2017-12-08T01:55:15.630Z,73045.85
2017-12-08T01:56:15.684Z,73054.65
2017-12-08T01:57:15.680Z,73075.64
2017-12-08T01:58:15.682Z,73051.26
2017-12-08T02:00:15.734Z,73028.94
2017-12-08T02:01:15.784Z,73001.60
2017-12-08T02:03:15.795Z,73005.10
2017-12-08T02:04:15.815Z,73041.46
2017-12-08T02:05:15.821Z,73029.45
2017-12-08T02:06:15.855Z,73025.50
2017-12-08T02:08:15.920Z,73034.46
2017-12-08T02:09:15.940Z,73038.03
2017-12-08T02:12:15.965Z,73029.32
2017-12-08T02:13:16.109Z,73016.78
2017-12-08T02:14:16.017Z,73006.15
2017-12-08T02:15:16.038Z,73018.83
2017-12-08T02:17:28.236Z,73024.00
2017-12-08T02:18:16.208Z,73035.02
2017-12-08T02:19:16.107Z,73053.88
2017-12-08T02:21:16.167Z,73001.49
2017-12-08T02:22:16.183Z,72994.10
2017-12-08T02:23:28.270Z,73038.66
2017-12-08T02:24:16.221Z,73014.36
2017-12-08T02:25:16.354Z,73001.27
2017-12-08T02:26:16.295Z,73020.59
2017-12-08T02:27:16.282Z,73026.76
2017-12-08T02:28:16.288Z,73032.25
2017-12-08T02:29:28.392Z,73041.94
2017-12-08T02:30:16.344Z,72994.82
2017-12-08T02:31:16.364Z,73012.19
2017-12-08T02:32:16.387Z,72975.66
2017-12-08T02:33:16.402Z,73019.19
2017-12-08T02:35:16.428Z,72983.91
2017-12-08T02:36:16.504Z,73020.59
2017-12-08T02:37:16.482Z,73005.09
2017-12-08T02:38:16.610Z,73010.73
2017-12-08T02:39:16.523Z,73000.12
2017-12-08T02:41:16.566Z,72986.98
2017-12-08T02:42:16.572Z,72956.72
2017-12-08T02:45:16.682Z,72989.58
2017-12-08T02:46:16.666Z,72985.23
2017-12-08T02:47:16.673Z,72953.17
2017-12-08T02:49:16.724Z,72991.68
2017-12-08T02:50:16.748Z,73005.49
2017-12-08T02:51:16.877Z,72942.27
2017-12-08T02:53:16.804Z,72986.08
2017-12-08T02:55:16.866Z,72987.35
2017-12-08T02:56:16.901Z,72964.64
2017-12-08T02:58:16.891Z,72981.07
2017-12-08T03:00:17.284Z,72979.35
2017-12-08T03:01:16.949Z,72986.70
2017-12-08T03:02:16.985Z,72957.00
2017-12-08T03:03:17.004Z,72982.33
2017-12-08T03:04:17.024Z,72989.89
2017-12-08T03:07:17.084Z,72934.47
2017-12-08T03:09:17.125Z,72946.16
2017-12-08T03:10:17.132Z,72896.37
2017-12-08T03:11:17.272Z,72955.79
2017-12-08T03:12:17.231Z,72937.27
2017-12-08T03:13:17.201Z,72946.23
2017-12-08T03:14:17.216Z,72955.96
2017-12-08T03:15:17.242Z,72946.98
2017-12-08T03:16:17.290Z,72947.63
2017-12-08T03:17:17.268Z,72938.98
2017-12-08T03:19:17.317Z,72906.11
2017-12-08T03:20:17.337Z,72940.27
2017-12-08T03:21:17.358Z,72920.53
2017-12-08T03:24:17.404Z,72918.83
2017-12-08T03:25:17.439Z,72928.53
2017-12-08T03:26:17.456Z,72899.73
2017-12-08T03:27:17.506Z,72897.41
2017-12-08T03:29:17.513Z,72904.70
2017-12-08T03:30:17.538Z,72901.27
2017-12-08T03:31:17.666Z,72886.61
2017-12-08T03:32:17.620Z,72931.15
2017-12-08T03:34:17.615Z,72903.90
2017-12-08T03:35:17.664Z,72911.61
2017-12-08T03:37:17.673Z,72909.52
2017-12-08T03:38:17.677Z,72910.77
2017-12-08T03:39:17.713Z,72875.78
2017-12-08T03:40:17.812Z,72903.85
2017-12-08T03:41:17.752Z,72897.57
2017-12-08T03:42:17.770Z,72911.95
2017-12-08T03:43:29.296Z,72898.38
2017-12-08T03:44:17.809Z,72913.62
2017-12-08T03:45:17.816Z,72904.78
2017-12-08T03:46:17.852Z,72860.77
2017-12-08T03:47:17.868Z,72907.02
2017-12-08T03:48:17.888Z,72879.25
2017-12-08T03:49:17.896Z,72909.57
2017-12-08T03:51:17.949Z,72881.84
2017-12-08T03:53:17.988Z,72866.52
2017-12-08T03:55:18.028Z,72863.77
2017-12-08T03:56:18.034Z,72829.79
2017-12-08T03:57:18.067Z,72879.51
2017-12-08T03:59:18.105Z,72822.91
2017-12-08T04:00:18.126Z,72856.03
2017-12-08T04:01:18.129Z,72892.73
2017-12-08T04:02:18.165Z,72875.95
2017-12-08T04:03:18.184Z,72831.30
2017-12-08T04:04:18.244Z,72862.16
2017-12-08T04:05:18.224Z,72875.80
2017-12-08T04:06:18.240Z,72881.08
2017-12-08T04:07:18.261Z,72849.84
2017-12-08T04:10:18.354Z,72842.41
2017-12-08T04:11:18.338Z,72823.27
2017-12-08T04:12:18.358Z,72876.70
2017-12-08T04:14:18.398Z,72834.96
2017-12-08T04:15:18.421Z,72880.56
2017-12-08T04:16:18.423Z,72832.78
2017-12-08T04:17:18.460Z,72902.17
2017-12-08T04:18:18.476Z,72865.41
2017-12-08T04:19:18.498Z,72863.88
2017-12-08T04:20:18.517Z,72878.79
2017-12-08T04:21:18.539Z,72825.91
2017-12-08T04:22:18.613Z,72852.88
2017-12-08T04:23:18.576Z,72842.05
2017-12-08T04:25:18.619Z,72853.38
2017-12-08T04:26:19.038Z,72863.41
2017-12-08T04:27:18.655Z,72811.80
2017-12-08T04:28:18.661Z,72841.78
2017-12-08T04:29:18.727Z,72832.89
2017-12-08T04:30:18.737Z,72801.19
2017-12-08T04:31:18.735Z,72860.94
2017-12-08T04:33:18.775Z,72819.23
2017-12-08T04:34:18.797Z,72815.65
2017-12-08T04:37:18.964Z,72817.85
2017-12-08T04:38:18.977Z,72815.72
2017-12-08T04:39:18.924Z,72807.36
2017-12-08T04:42:18.983Z,72829.55
2017-12-08T04:44:18.992Z,72848.36
2017-12-08T04:48:30.390Z,72794.57
2017-12-08T04:50:19.112Z,72858.75
2017-12-08T04:51:19.118Z,72837.38
2017-12-08T04:52:19.151Z,72855.91
2017-12-08T04:53:19.279Z,72811.34
2017-12-08T04:54:19.189Z,72821.31
2017-12-08T04:55:19.254Z,72805.77
2017-12-08T04:56:19.230Z,72796.43
2017-12-08T04:57:19.235Z,72852.85
2017-12-08T04:58:19.264Z,72848.35
2017-12-08T04:59:19.290Z,72823.17
2017-12-08T05:00:19.311Z,72849.20
2017-12-08T05:01:19.328Z,72821.66
2017-12-08T05:03:19.368Z,72872.20
2017-12-08T05:04:19.391Z,72804.88
2017-12-08T05:05:19.436Z,72817.27
2017-12-08T05:07:19.447Z,72816.90
2017-12-08T05:08:19.467Z,72791.09
2017-12-08T05:09:19.474Z,72831.57
2017-12-08T05:11:19.513Z,72795.51
2017-12-08T05:13:19.552Z,72810.01
2017-12-08T05:14:19.693Z,72850.81
2017-12-08T05:16:19.624Z,72829.76
2017-12-08T05:17:19.642Z,72805.14
2017-12-08T05:18:19.648Z,72815.35
2017-12-08T05:21:19.745Z,72803.48
2017-12-08T05:23:19.760Z,72831.82
2017-12-08T05:24:19.890Z,72831.48
2017-12-08T05:26:19.850Z,72770.70
2017-12-08T05:27:19.840Z,72809.12
2017-12-08T05:28:19.844Z,72810.30
2017-12-08T05:29:31.453Z,72801.47
2017-12-08T05:30:19.928Z,72813.13
2017-12-08T05:31:19.905Z,72829.82
2017-12-08T05:32:19.924Z,72811.91
2017-12-08T05:33:19.956Z,72793.80
2017-12-08T05:35:19.980Z,72822.88
2017-12-08T05:37:20.023Z,72824.21
2017-12-08T05:39:20.077Z,72793.28
2017-12-08T05:40:20.095Z,72808.05
2017-12-08T05:42:20.218Z,72810.90
2017-12-08T05:43:20.150Z,72833.69
2017-12-08T05:44:20.159Z,72815.30
2017-12-08T05:45:20.194Z,72786.77
2017-12-08T05:46:20.212Z,72811.47
2017-12-08T05:47:20.228Z,72815.06
2017-12-08T05:48:20.248Z,72791.71
2017-12-08T05:49:20.268Z,72821.27
2017-12-08T05:50:20.312Z,72800.91
2017-12-08T05:51:20.293Z,72809.02
2017-12-08T05:52:20.327Z,72835.20
2017-12-08T05:53:20.346Z,72821.29
2017-12-08T05:54:20.368Z,72782.31
2017-12-08T05:55:20.384Z,72781.14
2017-12-08T05:56:20.452Z,72801.12
2017-12-08T05:57:20.760Z,72827.42
2017-12-08T05:58:20.445Z,72785.79
2017-12-08T05:59:20.463Z,72817.95
2017-12-08T06:00:20.483Z,72824.59
2017-12-08T06:02:20.520Z,72808.01
2017-12-08T06:04:20.547Z,72828.61
2017-12-08T06:05:20.582Z,72806.83
2017-12-08T06:06:20.597Z,72802.68
2017-12-08T06:08:20.636Z,72773.62
2017-12-08T06:09:20.828Z,72728.02
2017-12-08T06:11:21.036Z,72799.59
2017-12-08T06:12:20.825Z,72775.68
2017-12-08T06:13:20.737Z,72788.66
2017-12-08T06:15:20.758Z,72756.13
2017-12-08T06:16:20.809Z,72777.17
2017-12-08T06:17:20.795Z,72738.80
2017-12-08T06:18:20.933Z,72831.34
2017-12-08T06:19:20.836Z,72805.80
2017-12-08T06:20:20.866Z,72803.25
2017-12-08T06:21:20.889Z,72769.30
2017-12-08T06:22:20.907Z,72773.24
2017-12-08T06:25:20.963Z,72802.90
2017-12-08T06:26:20.986Z,72811.46
2017-12-08T06:27:21.004Z,72759.09
2017-12-08T06:28:21.011Z,72731.50
2017-12-08T06:29:21.044Z,72798.13
2017-12-08T06:30:21.062Z,72766.97
2017-12-08T06:31:21.088Z,72768.66
2017-12-08T06:33:21.121Z,72752.55
2017-12-08T06:35:21.156Z,72777.29
2017-12-08T06:37:21.239Z,72760.78
2017-12-08T06:38:21.240Z,72771.29
2017-12-08T06:40:21.240Z,72778.88
2017-12-08T06:41:21.275Z,72788.51
2017-12-08T06:42:21.407Z,72777.84
2017-12-08T06:43:21.300Z,72777.84
2017-12-08T06:44:21.333Z,72746.32
2017-12-08T06:45:21.350Z,72750.24
2017-12-08T06:46:21.357Z,72783.80
2017-12-08T06:47:21.391Z,72786.65
2017-12-08T06:48:21.415Z,72782.46
2017-12-08T06:49:21.431Z,72813.88
2017-12-08T06:51:21.467Z,72777.27
2017-12-08T06:53:21.505Z,72791.65
2017-12-08T06:55:21.543Z,72722.22
2017-12-08T06:56:21.593Z,72771.95
2017-12-08T06:57:21.626Z,72777.28
2017-12-08T06:58:21.602Z,72773.20
2017-12-08T06:59:21.621Z,72756.80
2017-12-08T07:00:21.640Z,72685.99
2017-12-08T07:01:22.001Z,72767.85
2017-12-08T07:02:21.665Z,72760.50
2017-12-08T07:03:21.702Z,72757.03
2017-12-08T07:06:21.745Z,72771.94
2017-12-08T07:07:21.777Z,72757.99
2017-12-08T07:08:21.794Z,72769.44
2017-12-08T07:09:21.802Z,72790.34
2017-12-08T07:10:21.834Z,72791.33
2017-12-08T07:11:21.958Z,72784.15
2017-12-08T07:12:21.876Z,72750.23
2017-12-08T07:13:21.894Z,72750.04
2017-12-08T07:14:21.938Z,72754.32
2017-12-08T07:15:21.932Z,72766.19
2017-12-08T07:17:22.006Z,72759.73
2017-12-08T07:19:33.529Z,72772.41
2017-12-08T07:20:22.028Z,72790.22
2017-12-08T07:21:22.052Z,72791.98
2017-12-08T07:23:22.089Z,72747.23
2017-12-08T07:24:22.134Z,72761.98
2017-12-08T07:26:22.482Z,72771.42
2017-12-08T07:27:22.162Z,72743.15
2017-12-08T07:28:22.186Z,72764.03
2017-12-08T07:29:22.307Z,72721.78
2017-12-08T07:30:22.224Z,72786.05
2017-12-08T07:31:22.229Z,72774.66
2017-12-08T07:32:22.316Z,72765.78
2017-12-08T07:33:22.281Z,72776.26
2017-12-08T07:34:22.302Z,72782.73
2017-12-08T07:35:22.321Z,72768.95
2017-12-08T07:36:22.340Z,72787.38
2017-12-08T07:37:22.701Z,72772.72
2017-12-08T07:38:22.490Z,72738.53
2017-12-08T07:40:22.529Z,72785.85
2017-12-08T07:41:22.439Z,72751.27
2017-12-08T07:44:22.609Z,72758.23
2017-12-08T07:45:22.503Z,72736.01
2017-12-08T07:47:22.555Z,72789.16
2017-12-08T07:49:22.706Z,72732.12
2017-12-08T07:50:22.614Z,72737.28
2017-12-08T07:51:22.635Z,72733.09
2017-12-08T07:53:22.673Z,72722.25
2017-12-08T07:54:22.694Z,72732.34
2017-12-08T07:55:22.716Z,72738.31
2017-12-08T07:56:22.834Z,72750.91
2017-12-08T07:59:22.787Z,72761.80
2017-12-08T08:00:23.204Z,72738.63
2017-12-08T08:01:22.827Z,72710.23
2017-12-08T08:02:22.847Z,72703.34
2017-12-08T08:04:22.889Z,72735.57
2017-12-08T08:06:22.928Z,72739.85
2017-12-08T08:07:22.930Z,72712.12
2017-12-08T08:08:22.991Z,72731.09
2017-12-08T08:09:22.984Z,72716.52
2017-12-08T08:10:22.989Z,72725.72
2017-12-08T08:11:23.130Z,72712.34
2017-12-08T08:13:23.063Z,72692.17
2017-12-08T08:14:34.552Z,72722.23
2017-12-08T08:17:23.169Z,72720.45
2017-12-08T08:18:23.147Z,72699.39
2017-12-08T08:19:23.208Z,72739.12
2017-12-08T08:21:23.220Z,72717.08
2017-12-08T08:22:23.266Z,72736.88
2017-12-08T08:24:23.264Z,72715.75
2017-12-08T08:26:23.425Z,72697.15
2017-12-08T08:27:23.336Z,72710.34
2017-12-08T08:29:23.485Z,72669.98
2017-12-08T08:30:23.394Z,72741.82
2017-12-08T08:31:23.524Z,72717.48
2017-12-08T08:32:23.464Z,72706.32
2017-12-08T08:33:23.454Z,72702.16
2017-12-08T08:34:23.459Z,72722.77
2017-12-08T08:35:23.513Z,72730.03
2017-12-08T08:36:23.514Z,72718.85
2017-12-08T08:37:23.530Z,72690.83
2017-12-08T08:38:23.552Z,72711.55
2017-12-08T08:39:23.570Z,72713.14
2017-12-08T08:40:23.576Z,72697.14
2017-12-08T08:41:23.614Z,72685.40
2017-12-08T08:42:23.632Z,72735.74
2017-12-08T08:44:23.698Z,72726.47
2017-12-08T08:45:23.691Z,72714.88
2017-12-08T08:46:23.774Z,72692.74
2017-12-08T08:50:23.779Z,72709.65
2017-12-08T08:51:23.956Z,72728.45
2017-12-08T08:52:24.157Z,72719.84
2017-12-08T08:53:23.877Z,72706.45
2017-12-08T08:54:23.897Z,72720.48
2017-12-08T08:55:23.877Z,72705.82
2017-12-08T08:56:35.562Z,72712.94
2017-12-08T08:57:24.096Z,72698.14
2017-12-08T08:58:23.948Z,72744.59
2017-12-08T09:00:23.990Z,72686.55
2017-12-08T09:01:24.114Z,72707.23
2017-12-08T09:02:24.014Z,72694.31
2017-12-08T09:03:24.051Z,72696.01
2017-12-08T09:05:24.108Z,72712.38
2017-12-08T09:06:24.112Z,72718.52
2017-12-08T09:08:24.183Z,72744.02
2017-12-08T09:09:24.168Z,72695.54
2017-12-08T09:10:24.175Z,72707.04
2017-12-08T09:11:24.212Z,72718.39
2017-12-08T09:12:24.230Z,72719.69
2017-12-08T09:13:24.280Z,72715.77
2017-12-08T09:14:35.671Z,72711.70
2017-12-08T09:15:24.293Z,72713.79
2017-12-08T09:16:24.312Z,72719.18
2017-12-08T09:17:24.332Z,72707.93
2017-12-08T09:18:24.354Z,72711.21
2017-12-08T09:19:24.377Z,72705.37
2017-12-08T09:21:24.414Z,72701.00
2017-12-08T09:22:25.228Z,72663.77
2017-12-08T09:23:24.436Z,72690.09
2017-12-08T09:24:24.471Z,72689.77
2017-12-08T09:26:24.498Z,72698.99
2017-12-08T09:27:24.557Z,72702.98
2017-12-08T09:28:24.551Z,72712.05
2017-12-08T09:29:24.559Z,72683.82
2017-12-08T09:30:24.595Z,72697.38
2017-12-08T09:32:24.634Z,72699.18
2017-12-08T09:33:24.765Z,72707.80
2017-12-08T09:34:24.679Z,72705.38
2017-12-08T09:35:24.694Z,72705.80
2017-12-08T09:36:24.704Z,72703.47
2017-12-08T09:37:24.737Z,72705.71
2017-12-08T09:38:36.681Z,72704.45
2017-12-08T09:39:24.803Z,72708.36
2017-12-08T09:40:24.815Z,72706.26
2017-12-08T09:41:24.818Z,72704.49
2017-12-08T09:42:24.839Z,72704.73
2017-12-08T09:45:24.900Z,72682.22
2017-12-08T09:46:24.912Z,72689.08
2017-12-08T09:48:24.990Z,72696.26
2017-12-08T09:49:24.984Z,72697.54
2017-12-08T09:50:25.080Z,72708.54
2017-12-08T09:51:25.010Z,72692.29
2017-12-08T09:52:25.045Z,72690.66
2017-12-08T09:53:25.066Z,72693.52
2017-12-08T09:54:25.109Z,72683.38
2017-12-08T09:56:25.128Z,72676.77
2017-12-08T09:57:25.153Z,72677.17
2017-12-08T09:58:25.276Z,72669.66
2017-12-08T10:00:25.249Z,72665.89
2017-12-08T10:01:25.219Z,72659.42
2017-12-08T10:02:25.258Z,72628.96
2017-12-08T10:03:25.277Z,72655.82
2017-12-08T10:05:25.316Z,72649.58
2017-12-08T10:06:25.341Z,72645.76
2017-12-08T10:07:25.361Z,72663.02
2017-12-08T10:08:25.365Z,72679.02
2017-12-08T10:10:25.425Z,72657.31
2017-12-08T10:11:25.442Z,72654.13
2017-12-08T10:12:25.462Z,72636.77
2017-12-08T10:13:25.484Z,72637.73
2017-12-08T10:16:25.583Z,72612.99
2017-12-08T10:17:25.559Z,72613.44
2017-12-08T10:18:25.593Z,72616.61
2017-12-08T10:19:25.610Z,72630.18
2017-12-08T10:20:25.629Z,72626.44
2017-12-08T10:21:25.657Z,72650.04
2017-12-08T10:23:25.695Z,72598.95
2017-12-08T10:25:25.736Z,72600.95
2017-12-08T10:26:25.869Z,72610.62
2017-12-08T10:27:25.761Z,72606.52
2017-12-08T10:28:25.799Z,72601.87
2017-12-08T10:29:25.817Z,72601.26
2017-12-08T10:30:25.947Z,72596.01
2017-12-08T10:33:25.937Z,72598.86
2017-12-08T10:34:25.909Z,72587.84
2017-12-08T10:35:26.056Z,72588.58
2017-12-08T10:37:25.984Z,72583.24
2017-12-08T10:38:26.037Z,72559.21
2017-12-08T10:39:26.023Z,72548.21
2017-12-08T10:40:26.046Z,72585.32
2017-12-08T10:41:26.055Z,72590.54
2017-12-08T10:43:26.116Z,72582.06
2017-12-08T10:46:26.156Z,72557.70
2017-12-08T10:47:26.191Z,72557.10
2017-12-08T10:48:26.197Z,72573.95
2017-12-08T10:49:26.571Z,72548.17
2017-12-08T10:50:26.254Z,72574.13
2017-12-08T10:51:26.380Z,72575.50
2017-12-08T10:52:26.321Z,72580.07
2017-12-08T10:54:26.337Z,72564.62
2017-12-08T10:55:26.344Z,72569.45
2017-12-08T10:56:26.377Z,72567.43
2017-12-08T10:57:26.397Z,72564.70
2017-12-08T10:58:37.734Z,72564.69
2017-12-08T11:00:26.789Z,72560.14
2017-12-08T11:01:26.478Z,72555.50
2017-12-08T11:02:26.486Z,72563.84
2017-12-08T11:03:38.679Z,72568.30
2017-12-08T11:04:26.545Z,72567.39
2017-12-08T11:05:26.562Z,72567.41
2017-12-08T11:06:26.586Z,72547.55
2017-12-08T11:07:26.603Z,72557.25
2017-12-08T11:08:26.627Z,72551.54
2017-12-08T11:09:26.664Z,72557.04
2017-12-08T11:10:26.666Z,72578.89
2017-12-08T11:12:26.695Z,72540.08
2017-12-08T11:13:26.730Z,72553.58
2017-12-08T11:14:26.752Z,72555.21
2017-12-08T11:16:26.793Z,72552.60
2017-12-08T11:18:26.838Z,72563.38
2017-12-08T11:19:26.864Z,72556.48
2017-12-08T11:20:26.881Z,72557.36
2017-12-08T11:21:26.903Z,72562.83
2017-12-08T11:23:26.944Z,72557.23
2017-12-08T11:26:27.008Z,72545.09
2017-12-08T11:27:27.027Z,72547.88
2017-12-08T11:28:27.036Z,72537.23
2017-12-08T11:29:27.111Z,72544.04
2017-12-08T11:30:27.091Z,72549.69
2017-12-08T11:31:27.114Z,72545.09
2017-12-08T11:33:27.157Z,72542.59
2017-12-08T11:34:27.208Z,72535.80
2017-12-08T11:35:27.202Z,72539.05
2017-12-08T11:36:27.221Z,72543.55
2017-12-08T11:37:27.243Z,72535.40
2017-12-08T11:38:27.287Z,72535.28
2017-12-08T11:39:27.285Z,72539.86
2017-12-08T11:40:27.336Z,72541.38
2017-12-08T11:41:27.327Z,72541.03
2017-12-08T11:42:27.377Z,72542.36
2017-12-08T11:44:27.395Z,72537.63
2017-12-08T11:48:27.466Z,72536.14
2017-12-08T11:49:27.547Z,72533.89
2017-12-08T11:50:27.525Z,72538.00
2017-12-08T11:51:27.545Z,72539.08
2017-12-08T11:52:39.774Z,72538.70
2017-12-08T11:53:27.622Z,72534.88
2017-12-08T11:54:27.612Z,72528.82
2017-12-08T11:55:27.638Z,72525.95
2017-12-08T11:56:27.636Z,72520.05
2017-12-08T11:57:27.677Z,72524.02
2017-12-08T11:59:39.788Z,72528.92
2017-12-08T12:01:27.759Z,72532.09
2017-12-08T12:03:27.800Z,72522.36
2017-12-08T12:04:27.827Z,72519.95
2017-12-08T12:05:39.854Z,72515.28
2017-12-08T12:06:27.864Z,72510.20
2017-12-08T12:07:27.889Z,72512.43
2017-12-08T12:09:27.931Z,72524.99
2017-12-08T12:10:28.025Z,72521.39
2017-12-08T12:12:27.989Z,72514.55
2017-12-08T12:13:28.012Z,72513.34
2017-12-08T12:14:28.017Z,72512.72
2017-12-08T12:15:28.052Z,72505.91
2017-12-08T12:16:28.073Z,72513.70
2017-12-08T12:18:28.104Z,72510.58
2017-12-08T12:19:28.137Z,72506.79
2017-12-08T12:23:28.219Z,72491.47
2017-12-08T12:24:28.236Z,72504.98
2017-12-08T12:26:28.268Z,72489.66
2017-12-08T12:27:28.302Z,72499.20
2017-12-08T12:29:28.339Z,72494.01
2017-12-08T12:30:28.360Z,72487.82
2017-12-08T12:31:28.381Z,72497.28
2017-12-08T12:32:28.569Z,72497.22
2017-12-08T12:33:28.415Z,72494.41
2017-12-08T12:35:28.461Z,72485.33
2017-12-08T12:36:28.483Z,72477.83
2017-12-08T12:37:28.492Z,72483.69
2017-12-08T12:38:28.548Z,72485.06
2017-12-08T12:39:28.546Z,72482.33
2017-12-08T12:40:28.568Z,72482.83
2017-12-08T12:41:28.626Z,72479.38
2017-12-08T12:42:28.607Z,72476.98
2017-12-08T12:43:28.631Z,72473.52
2017-12-08T12:44:28.634Z,72470.27
2017-12-08T12:45:28.669Z,72465.59
2017-12-08T12:47:28.710Z,72467.05
2017-12-08T12:48:28.716Z,72461.92
2017-12-08T12:50:28.758Z,72436.00
2017-12-08T12:51:28.904Z,72448.45
2017-12-08T12:52:28.794Z,72451.34
2017-12-08T12:53:28.943Z,72456.88
2017-12-08T12:54:28.849Z,72456.34
2017-12-08T12:55:28.892Z,72451.10
2017-12-08T12:56:28.878Z,72449.87
2017-12-08T12:57:28.913Z,72449.96
2017-12-08T12:58:28.928Z,72444.52
2017-12-08T12:59:28.951Z,72450.54
2017-12-08T13:00:29.082Z,72447.43
2017-12-08T13:01:29.032Z,72443.45
2017-12-08T13:02:28.996Z,72440.21
2017-12-08T13:03:29.030Z,72438.23
2017-12-08T13:04:29.034Z,72438.59
2017-12-08T13:05:29.069Z,72437.48
2017-12-08T13:06:29.092Z,72439.02
2017-12-08T13:07:29.109Z,72441.89
2017-12-08T13:08:29.129Z,72436.94
2017-12-08T13:09:29.148Z,72428.86
2017-12-08T13:10:29.176Z,72438.56
2017-12-08T13:12:29.207Z,72435.24
2017-12-08T13:13:29.214Z,72417.24
2017-12-08T13:14:29.247Z,72436.11
2017-12-08T13:15:29.297Z,72436.30
2017-12-08T13:16:29.317Z,72433.95
2017-12-08T13:17:29.305Z,72442.84
2017-12-08T13:18:29.329Z,72432.72
2017-12-08T13:20:29.352Z,72454.37
2017-12-08T13:21:29.425Z,72435.63
2017-12-08T13:22:29.404Z,72436.24
2017-12-08T13:23:29.534Z,72465.32
2017-12-08T13:24:29.446Z,72450.25
2017-12-08T13:25:29.458Z,72442.38
2017-12-08T13:26:29.485Z,72418.85
2017-12-08T13:27:29.501Z,72434.45
2017-12-08T13:28:29.632Z,72428.33
2017-12-08T13:29:29.524Z,72421.73
2017-12-08T13:31:29.561Z,72438.66
2017-12-08T13:35:29.681Z,72355.28
2017-12-08T13:36:29.712Z,72424.73
2017-12-08T13:37:29.692Z,72427.30
2017-12-08T13:38:29.697Z,72417.52
2017-12-08T13:39:41.834Z,72386.77
2017-12-08T13:40:29.750Z,72403.01
2017-12-08T13:43:29.805Z,72416.23
2017-12-08T13:44:29.823Z,72377.05
2017-12-08T13:45:29.844Z,72377.80
2017-12-08T13:47:30.139Z,72429.38
2017-12-08T13:49:29.900Z,72416.63
2017-12-08T13:50:29.967Z,72405.09
2017-12-08T13:51:29.940Z,72402.88
2017-12-08T13:53:29.986Z,72374.45
2017-12-08T13:55:30.135Z,72367.62
2017-12-08T13:56:30.084Z,72409.77
2017-12-08T13:57:30.060Z,72387.70
2017-12-08T13:58:30.080Z,72395.11
2017-12-08T13:59:30.124Z,72379.56
2017-12-08T14:00:30.111Z,72331.31
2017-12-08T14:01:30.128Z,72382.74
2017-12-08T14:02:30.146Z,72387.82
2017-12-08T14:03:30.274Z,72360.15
2017-12-08T14:04:30.183Z,72356.02
2017-12-08T14:05:30.184Z,72358.89
2017-12-08T14:07:30.243Z,72357.41
2017-12-08T14:08:30.253Z,72376.87
2017-12-08T14:10:30.287Z,72337.04
2017-12-08T14:12:30.307Z,72402.87
2017-12-08T14:13:30.450Z,72398.09
2017-12-08T14:15:30.388Z,72414.90
2017-12-08T14:16:30.405Z,72402.07
2017-12-08T14:18:30.424Z,72397.16
2017-12-08T14:19:30.441Z,72374.52
2017-12-08T14:20:30.456Z,72376.72
2017-12-08T14:21:30.476Z,72393.95
2017-12-08T14:22:30.491Z,72368.01
2017-12-08T14:23:30.537Z,72380.34
2017-12-08T14:24:30.521Z,72359.70
2017-12-08T14:25:30.526Z,72392.64
2017-12-08T14:26:30.544Z,72364.63
2017-12-08T14:27:30.558Z,72355.16
2017-12-08T14:28:30.913Z,72373.48
2017-12-08T14:30:30.631Z,72372.63
2017-12-08T14:31:30.984Z,72364.95
2017-12-08T14:32:42.912Z,72386.86
2017-12-08T14:33:30.673Z,72368.88
2017-12-08T14:35:30.707Z,72371.20
2017-12-08T14:36:30.724Z,72369.19
2017-12-08T14:37:30.773Z,72338.86
2017-12-08T14:38:30.757Z,72344.23
2017-12-08T14:39:30.759Z,72334.98
2017-12-08T14:40:30.787Z,72317.62
2017-12-08T14:41:30.831Z,72391.99
2017-12-08T14:42:30.808Z,72346.74
2017-12-08T14:43:30.822Z,72331.07
2017-12-08T14:44:42.908Z,72350.52
2017-12-08T14:45:30.868Z,72317.67
2017-12-08T14:46:30.921Z,72370.78
2017-12-08T14:47:30.902Z,72353.13
2017-12-08T14:49:30.970Z,72361.47
2017-12-08T14:50:42.986Z,72345.52
2017-12-08T14:51:31.014Z,72328.80
2017-12-08T14:53:31.000Z,72372.52
2017-12-08T14:54:31.014Z,72339.20
2017-12-08T14:55:31.017Z,72349.56
2017-12-08T14:56:31.049Z,72374.25
2017-12-08T14:57:31.065Z,72353.23
2017-12-08T14:59:31.127Z,72388.70